Time;durP1;ratioP1;P1;durP2;ratioP2;P2;SDS_P1;SDS_P2;PMS_P1;PMS_P2;Temp;Humidity;BMP_temperature;BMP_pressure;BME280_temperature;BME280_humidity;BME280_pressure;Samples;Min_cycle;Max_cycle;Signal;HPM_P1;HPM_P2
2023/01/25 00:01:56;;;;;;;11.03;7.83;;;;;;;;;;4417083;32;315769;-85
2023/01/25 00:04:23;;;;;;;10.80;8.50;;;;;;;;;;4406546;32;357871;-85
2023/01/25 00:06:50;;;;;;;12.67;10.00;;;;;;;;;;4417883;32;317412;-84
2023/01/25 00:09:18;;;;;;;16.07;11.13;;;;;;;;;;4410406;32;318819;-84
2023/01/25 00:11:45;;;;;;;19.87;13.23;;;;;;;;;;4418015;32;318473;-84
2023/01/25 00:14:14;;;;;;;18.90;13.87;;;;;;;;;;4417900;32;317491;-84
2023/01/25 00:16:41;;;;;;;17.80;12.73;;;;;;;;;;4406674;32;318371;-85
2023/01/25 00:19:10;;;;;;;17.90;13.17;;;;;;;;;;4416974;32;317535;-84
2023/01/25 00:21:38;;;;;;;18.73;13.47;;;;;;;;;;4407677;32;318702;-84
2023/01/25 00:24:06;;;;;;;13.23;10.13;;;;;;;;;;4415309;32;317487;-85
2023/01/25 00:26:34;;;;;;;14.10;10.13;;;;;;;;;;4406634;32;318402;-84
2023/01/25 00:29:01;;;;;;;9.73;8.07;;;;;;;;;;4416314;32;317538;-85
2023/01/25 00:31:37;;;;;;;7.93;6.87;;;;;;;;;;4407747;32;316482;-84
2023/01/25 00:34:27;;;;;;;9.30;7.50;;;;;;;;;;4415976;32;334638;-84
2023/01/25 00:36:57;;;;;;;9.10;8.07;;;;;;;;;;4405086;32;416502;-84
2023/01/25 00:39:26;;;;;;;8.03;7.17;;;;;;;;;;4400221;32;334319;-85
2023/01/25 00:41:53;;;;;;;8.67;7.07;;;;;;;;;;4420169;32;316232;-84
2023/01/25 00:44:19;;;;;;;11.50;8.13;;;;;;;;;;4409187;32;362445;-85
2023/01/25 00:46:46;;;;;;;9.77;7.90;;;;;;;;;;4420754;32;317132;-84
2023/01/25 00:49:21;;;;;;;11.50;8.53;;;;;;;;;;4420621;32;316247;-84
2023/01/25 00:51:48;;;;;;;11.03;8.27;;;;;;;;;;4407970;32;418482;-84
2023/01/25 00:54:15;;;;;;;12.20;9.27;;;;;;;;;;4419422;32;316349;-84
2023/01/25 00:56:41;;;;;;;11.30;9.00;;;;;;;;;;4410046;32;331896;-84
2023/01/25 00:59:09;;;;;;;11.27;9.10;;;;;;;;;;4420857;32;317241;-84
2023/01/25 01:01:36;;;;;;;14.03;10.20;;;;;;;;;;4410705;32;317123;-85
2023/01/25 01:04:05;;;;;;;13.73;10.40;;;;;;;;;;4420409;32;318384;-84
2023/01/25 01:06:35;;;;;;;14.13;9.43;;;;;;;;;;4410335;32;318596;-84
2023/01/25 01:09:02;;;;;;;16.00;9.80;;;;;;;;;;4419570;32;317249;-84
2023/01/25 01:11:30;;;;;;;14.23;9.40;;;;;;;;;;4409031;32;316661;-85
2023/01/25 01:13:57;;;;;;;13.40;8.97;;;;;;;;;;4418988;32;317328;-84
2023/01/25 01:16:24;;;;;;;9.77;8.37;;;;;;;;;;4408153;32;346294;-84
2023/01/25 01:18:51;;;;;;;9.67;8.07;;;;;;;;;;4419344;32;316318;-84
2023/01/25 01:21:18;;;;;;;9.63;8.10;;;;;;;;;;4407935;32;316500;-84
2023/01/25 01:23:46;;;;;;;10.23;7.73;;;;;;;;;;4418843;32;324948;-84
2023/01/25 01:26:14;;;;;;;9.87;8.63;;;;;;;;;;4418892;32;317415;-84
2023/01/25 01:28:42;;;;;;;12.87;9.27;;;;;;;;;;4409725;32;316651;-84
2023/01/25 01:31:11;;;;;;;10.53;8.47;;;;;;;;;;4419878;32;316669;-84
2023/01/25 01:33:38;;;;;;;10.70;8.93;;;;;;;;;;4410101;32;317392;-84
2023/01/25 01:36:08;;;;;;;10.17;8.00;;;;;;;;;;4419950;32;317286;-84
2023/01/25 01:38:35;;;;;;;11.53;7.83;;;;;;;;;;4409860;32;317090;-84
2023/01/25 01:41:04;;;;;;;10.20;8.17;;;;;;;;;;4420013;32;316850;-84
2023/01/25 01:43:31;;;;;;;10.57;8.87;;;;;;;;;;4410063;32;316616;-84
2023/01/25 01:46:02;;;;;;;11.93;9.43;;;;;;;;;;4418483;32;317256;-84
2023/01/25 01:48:34;;;;;;;14.00;9.50;;;;;;;;;;4409215;32;344304;-84
2023/01/25 01:51:05;;;;;;;9.80;8.77;;;;;;;;;;4418660;32;316749;-84
2023/01/25 01:53:33;;;;;;;10.50;8.90;;;;;;;;;;4409245;32;323364;-84
2023/01/25 01:56:05;;;;;;;10.07;8.77;;;;;;;;;;4418981;32;317378;-84
2023/01/25 01:58:33;;;;;;;9.20;7.87;;;;;;;;;;4408573;32;317397;-83
2023/01/25 02:01:00;;;;;;;10.00;8.23;;;;;;;;;;4417547;32;343220;-83
2023/01/25 02:03:29;;;;;;;12.73;9.47;;;;;;;;;;4409649;32;317199;-84
2023/01/25 02:06:01;;;;;;;14.13;9.60;;;;;;;;;;4419310;32;317299;-84
2023/01/25 02:08:31;;;;;;;11.77;9.80;;;;;;;;;;4408175;32;331065;-85
2023/01/25 02:10:59;;;;;;;13.07;9.40;;;;;;;;;;4419429;32;317328;-84
2023/01/25 02:13:28;;;;;;;13.23;9.77;;;;;;;;;;4408426;32;316803;-84
2023/01/25 02:15:56;;;;;;;13.73;10.13;;;;;;;;;;4418117;32;317504;-84
2023/01/25 02:18:24;;;;;;;13.50;9.80;;;;;;;;;;4408126;32;321470;-84
2023/01/25 02:20:53;;;;;;;14.40;10.60;;;;;;;;;;4418135;32;316847;-83
2023/01/25 02:23:25;;;;;;;12.80;10.30;;;;;;;;;;4406827;32;347074;-84
2023/01/25 02:25:54;;;;;;;12.70;9.63;;;;;;;;;;4419123;32;317756;-83
2023/01/25 02:28:26;;;;;;;14.47;10.33;;;;;;;;;;4410192;32;316343;-84
2023/01/25 02:30:53;;;;;;;10.73;8.80;;;;;;;;;;4419206;32;318125;-84
2023/01/25 02:33:23;;;;;;;10.53;9.10;;;;;;;;;;4407942;32;316450;-84
2023/01/25 02:35:55;;;;;;;11.43;9.40;;;;;;;;;;4417584;32;331999;-84
2023/01/25 02:38:22;;;;;;;13.57;10.20;;;;;;;;;;4409453;32;317210;-84
2023/01/25 02:40:52;;;;;;;15.33;10.70;;;;;;;;;;4418763;32;318461;-83
2023/01/25 02:43:20;;;;;;;13.40;10.63;;;;;;;;;;4408014;32;318523;-84
2023/01/25 02:45:52;;;;;;;16.37;10.73;;;;;;;;;;4418746;32;317766;-84
2023/01/25 02:48:19;;;;;;;15.27;11.33;;;;;;;;;;4408158;32;318197;-84
2023/01/25 02:50:48;;;;;;;19.80;13.00;;;;;;;;;;4418759;32;317836;-84
2023/01/25 02:53:15;;;;;;;24.80;13.80;;;;;;;;;;4417950;32;317616;-84
2023/01/25 02:55:42;;;;;;;19.07;12.73;;;;;;;;;;4404231;32;412652;-84
2023/01/25 02:58:09;;;;;;;21.20;13.23;;;;;;;;;;4417779;32;317597;-84
2023/01/25 03:00:37;;;;;;;20.17;12.77;;;;;;;;;;4408032;32;317467;-84
2023/01/25 03:03:04;;;;;;;24.97;13.73;;;;;;;;;;4410314;32;317625;-84
2023/01/25 03:05:30;;;;;;;22.37;13.27;;;;;;;;;;4408532;32;318470;-84
2023/01/25 03:07:57;;;;;;;23.37;12.83;;;;;;;;;;4418392;32;317494;-84
2023/01/25 03:10:24;;;;;;;22.03;13.43;;;;;;;;;;4407323;32;318426;-84
2023/01/25 03:12:51;;;;;;;17.97;12.37;;;;;;;;;;4417552;32;318541;-85
2023/01/25 03:15:17;;;;;;;21.37;12.70;;;;;;;;;;4408350;32;318189;-86
2023/01/25 03:17:46;;;;;;;15.30;11.43;;;;;;;;;;4418583;32;318403;-84
2023/01/25 03:20:13;;;;;;;15.60;10.63;;;;;;;;;;4418153;32;317476;-84
2023/01/25 03:22:39;;;;;;;13.77;10.43;;;;;;;;;;4408543;32;318292;-84
2023/01/25 03:25:07;;;;;;;18.73;11.23;;;;;;;;;;4417383;32;318317;-84
2023/01/25 03:27:34;;;;;;;16.80;11.10;;;;;;;;;;4407120;32;318180;-84
2023/01/25 03:30:01;;;;;;;13.73;11.13;;;;;;;;;;4416907;32;318422;-84
2023/01/25 03:32:28;;;;;;;15.97;11.77;;;;;;;;;;4406596;32;342599;-84
2023/01/25 03:34:57;;;;;;;15.87;11.20;;;;;;;;;;4417959;32;318303;-84
2023/01/25 03:37:28;;;;;;;18.97;12.97;;;;;;;;;;4408281;32;318369;-84
2023/01/25 03:39:55;;;;;;;24.17;14.97;;;;;;;;;;4418043;32;317478;-84
2023/01/25 03:42:23;;;;;;;25.03;14.53;;;;;;;;;;4406938;32;318395;-84
2023/01/25 03:44:50;;;;;;;18.50;13.20;;;;;;;;;;4416804;32;317650;-84
2023/01/25 03:47:17;;;;;;;18.70;13.53;;;;;;;;;;4415868;32;353670;-84
2023/01/25 03:49:43;;;;;;;14.70;11.73;;;;;;;;;;4404918;32;418050;-84
2023/01/25 03:52:12;;;;;;;47.50;28.50;;;;;;;;;;4418104;32;317895;-84
2023/01/25 03:54:38;;;;;;;27.97;14.50;;;;;;;;;;4408466;32;318420;-84
2023/01/25 03:57:05;;;;;;;18.20;14.00;;;;;;;;;;4418508;32;318293;-84
2023/01/25 03:59:32;;;;;;;22.83;13.67;;;;;;;;;;4406736;32;318359;-84
2023/01/25 04:01:59;;;;;;;22.10;12.80;;;;;;;;;;4417948;32;321327;-84
2023/01/25 04:04:25;;;;;;;23.30;12.93;;;;;;;;;;4407690;32;317941;-84
2023/01/25 04:06:52;;;;;;;19.07;12.40;;;;;;;;;;4417988;32;318891;-84
2023/01/25 04:09:20;;;;;;;18.07;12.00;;;;;;;;;;4406729;32;318436;-84
2023/01/25 04:11:49;;;;;;;19.07;12.77;;;;;;;;;;4417609;32;317494;-84
2023/01/25 04:14:16;;;;;;;24.03;14.47;;;;;;;;;;4415894;32;341002;-84
2023/01/25 04:16:43;;;;;;;28.70;17.27;;;;;;;;;;4405062;32;417378;-84
2023/01/25 04:19:09;;;;;;;22.23;15.93;;;;;;;;;;4418954;32;318552;-84
2023/01/25 04:21:36;;;;;;;26.40;14.77;;;;;;;;;;4406761;32;317994;-84
2023/01/25 04:24:03;;;;;;;16.40;11.47;;;;;;;;;;4414077;32;317363;-84
2023/01/25 04:26:31;;;;;;;23.13;15.37;;;;;;;;;;4406638;32;318345;-84
2023/01/25 04:28:58;;;;;;;30.60;20.00;;;;;;;;;;4416687;32;317609;-84
2023/01/25 04:31:25;;;;;;;20.77;14.40;;;;;;;;;;4398968;32;318543;-85
2023/01/25 04:33:51;;;;;;;20.23;13.63;;;;;;;;;;4416570;32;318662;-84
2023/01/25 04:36:18;;;;;;;20.23;13.83;;;;;;;;;;4407529;32;318273;-84
2023/01/25 04:38:45;;;;;;;21.67;14.80;;;;;;;;;;4416775;32;318295;-84
2023/01/25 04:41:12;;;;;;;23.20;16.23;;;;;;;;;;4416311;32;318626;-84
2023/01/25 04:43:40;;;;;;;22.07;16.73;;;;;;;;;;4407714;32;318448;-84
2023/01/25 04:46:06;;;;;;;30.30;21.90;;;;;;;;;;4417423;32;318262;-84
2023/01/25 04:48:33;;;;;;;105.13;54.77;;;;;;;;;;4407632;32;318503;-84
2023/01/25 04:51:00;;;;;;;125.27;66.77;;;;;;;;;;4416053;32;318543;-84
2023/01/25 04:53:27;;;;;;;116.70;62.60;;;;;;;;;;4406011;32;324813;-84
2023/01/25 04:55:54;;;;;;;109.40;60.07;;;;;;;;;;4415544;32;324145;-84
2023/01/25 04:58:21;;;;;;;108.57;55.93;;;;;;;;;;4407504;32;319419;-83
2023/01/25 05:00:49;;;;;;;71.60;39.70;;;;;;;;;;4417010;32;318857;-84
2023/01/25 05:03:15;;;;;;;48.67;30.67;;;;;;;;;;4417523;32;318174;-84
2023/01/25 05:05:46;;;;;;;27.87;19.53;;;;;;;;;;4404174;32;417150;-84
2023/01/25 05:08:13;;;;;;;42.07;25.40;;;;;;;;;;4416218;32;317860;-85
2023/01/25 05:10:40;;;;;;;45.47;31.33;;;;;;;;;;4406498;32;333616;-84
2023/01/25 05:13:06;;;;;;;50.83;28.27;;;;;;;;;;4417639;32;318483;-84
2023/01/25 05:15:33;;;;;;;50.93;31.57;;;;;;;;;;4406747;32;318421;-84
2023/01/25 05:18:02;;;;;;;46.87;29.00;;;;;;;;;;4416088;32;317842;-84
2023/01/25 05:20:28;;;;;;;41.23;27.57;;;;;;;;;;4407073;32;318299;-84
2023/01/25 05:22:55;;;;;;;38.60;23.50;;;;;;;;;;4417366;32;317490;-84
2023/01/25 05:28:07;;;;;;;25.33;17.60;;;;;;;;;;4420095;32;317401;-84
2023/01/25 05:30:36;;;;;;;29.10;19.90;;;;;;;;;;4408634;32;321712;-84
2023/01/25 05:33:04;;;;;;;29.93;21.30;;;;;;;;;;4418707;32;317752;-84
2023/01/25 05:35:31;;;;;;;66.37;35.17;;;;;;;;;;4408250;32;317643;-84
2023/01/25 05:37:59;;;;;;;87.27;45.33;;;;;;;;;;4418716;32;318271;-84
2023/01/25 05:40:26;;;;;;;104.47;57.20;;;;;;;;;;4409771;32;318422;-84
2023/01/25 05:42:56;;;;;;;123.53;60.83;;;;;;;;;;4419945;32;319647;-84
2023/01/25 05:45:23;;;;;;;96.20;56.60;;;;;;;;;;4407797;32;318682;-84
2023/01/25 05:47:53;;;;;;;79.33;44.93;;;;;;;;;;4418197;32;318241;-84
2023/01/25 05:50:22;;;;;;;65.67;38.73;;;;;;;;;;4409419;32;317628;-84
2023/01/25 05:52:48;;;;;;;65.10;41.60;;;;;;;;;;4419393;32;318267;-84
2023/01/25 05:55:15;;;;;;;62.37;40.23;;;;;;;;;;4418804;32;318473;-84
2023/01/25 05:57:42;;;;;;;61.33;38.07;;;;;;;;;;4406467;32;417505;-84
2023/01/25 06:00:10;;;;;;;66.00;39.67;;;;;;;;;;4417834;32;318414;-83
2023/01/25 06:02:37;;;;;;;54.27;35.33;;;;;;;;;;4408192;32;317924;-85
2023/01/25 06:05:04;;;;;;;63.27;39.80;;;;;;;;;;4417506;32;317886;-84
2023/01/25 06:07:35;;;;;;;70.70;41.20;;;;;;;;;;4409333;32;317643;-83
2023/01/25 06:10:02;;;;;;;60.40;38.83;;;;;;;;;;4418080;32;318308;-83
2023/01/25 06:12:29;;;;;;;53.20;34.60;;;;;;;;;;4409403;32;318641;-84
2023/01/25 06:14:55;;;;;;;48.37;29.83;;;;;;;;;;4418511;32;317611;-83
2023/01/25 06:17:22;;;;;;;38.87;25.77;;;;;;;;;;4407977;32;318572;-83
2023/01/25 06:19:49;;;;;;;28.87;20.07;;;;;;;;;;4416887;32;317599;-84
2023/01/25 06:22:16;;;;;;;27.80;18.70;;;;;;;;;;4418724;32;318463;-84
2023/01/25 06:24:44;;;;;;;25.03;17.93;;;;;;;;;;4405448;32;416936;-84
2023/01/25 06:27:11;;;;;;;34.20;24.87;;;;;;;;;;4418790;32;318243;-85
2023/01/25 06:29:38;;;;;;;26.27;17.73;;;;;;;;;;4407657;32;341490;-84
2023/01/25 06:32:05;;;;;;;26.30;18.63;;;;;;;;;;4418528;32;318474;-84
2023/01/25 06:34:31;;;;;;;29.80;19.77;;;;;;;;;;4408266;32;318347;-84
2023/01/25 06:36:58;;;;;;;28.53;20.23;;;;;;;;;;4416924;32;317504;-84
2023/01/25 06:39:25;;;;;;;32.90;22.43;;;;;;;;;;4406369;32;348487;-84
2023/01/25 06:41:53;;;;;;;34.97;23.83;;;;;;;;;;4418339;32;317623;-84
2023/01/25 06:44:20;;;;;;;31.57;22.63;;;;;;;;;;4406687;32;318325;-84
2023/01/25 06:46:47;;;;;;;31.13;20.87;;;;;;;;;;4417054;32;317519;-84
2023/01/25 06:49:14;;;;;;;25.67;18.10;;;;;;;;;;4409922;32;318256;-84
2023/01/25 06:51:41;;;;;;;29.50;20.23;;;;;;;;;;4407943;32;317392;-84
2023/01/25 06:54:07;;;;;;;24.07;15.40;;;;;;;;;;4418272;32;318603;-83
2023/01/25 06:56:34;;;;;;;19.93;15.03;;;;;;;;;;4406994;32;318823;-86
2023/01/25 06:59:02;;;;;;;22.67;15.73;;;;;;;;;;4417034;32;317566;-86
2023/01/25 07:01:29;;;;;;;29.60;19.57;;;;;;;;;;4406948;32;317728;-85
2023/01/25 07:03:58;;;;;;;25.63;17.80;;;;;;;;;;4416494;32;334808;-85
2023/01/25 07:06:26;;;;;;;25.67;16.43;;;;;;;;;;4408336;32;318661;-85
2023/01/25 07:08:53;;;;;;;21.17;14.77;;;;;;;;;;4417703;32;321021;-85
2023/01/25 07:11:20;;;;;;;17.83;13.23;;;;;;;;;;4407504;32;317763;-85
2023/01/25 07:13:47;;;;;;;21.73;14.87;;;;;;;;;;4417717;32;317675;-85
2023/01/25 07:16:17;;;;;;;16.27;10.90;;;;;;;;;;4416948;32;336686;-85
2023/01/25 07:18:44;;;;;;;19.23;12.67;;;;;;;;;;4402999;32;418090;-85
2023/01/25 07:21:14;;;;;;;14.00;11.07;;;;;;;;;;4415694;32;337907;-85
2023/01/25 07:23:41;;;;;;;15.50;10.80;;;;;;;;;;4407527;32;317495;-85
2023/01/25 07:26:16;;;;;;;16.37;11.30;;;;;;;;;;4417072;32;317442;-85
2023/01/25 07:28:43;;;;;;;20.70;12.87;;;;;;;;;;4404549;32;419591;-83
2023/01/25 07:31:10;;;;;;;18.97;13.00;;;;;;;;;;4416976;32;318345;-85
2023/01/25 07:33:38;;;;;;;16.53;14.10;;;;;;;;;;4407507;32;317680;-85
2023/01/25 07:36:07;;;;;;;25.67;17.77;;;;;;;;;;4416921;32;318283;-84
2023/01/25 07:38:34;;;;;;;25.17;18.77;;;;;;;;;;4407150;32;317643;-83
2023/01/25 07:41:01;;;;;;;25.73;20.20;;;;;;;;;;4416861;32;317718;-83
2023/01/25 07:43:28;;;;;;;45.73;26.70;;;;;;;;;;4407057;32;317589;-83
2023/01/25 07:46:01;;;;;;;34.57;20.33;;;;;;;;;;4416878;32;318471;-85
2023/01/25 07:48:28;;;;;;;22.57;15.80;;;;;;;;;;4405882;32;323996;-83
2023/01/25 07:51:11;;;;;;;20.77;13.70;;;;;;;;;;4415578;32;318084;-83
2023/01/25 07:53:38;;;;;;;20.90;15.77;;;;;;;;;;4407699;32;317356;-83
2023/01/25 07:56:05;;;;;;;11.97;10.27;;;;;;;;;;4416280;32;331594;-84
2023/01/25 07:58:32;;;;;;;23.80;18.03;;;;;;;;;;4405923;32;317421;-84
2023/01/25 08:01:06;;;;;;;22.87;15.63;;;;;;;;;;4415956;32;317296;-84
2023/01/25 08:03:33;;;;;;;20.87;15.57;;;;;;;;;;4407330;32;318668;-83
2023/01/25 08:06:03;;;;;;;14.47;9.07;;;;;;;;;;4416765;32;318088;-84
2023/01/25 08:08:33;;;;;;;16.07;10.77;;;;;;;;;;4405921;32;317269;-83
2023/01/25 08:11:00;;;;;;;27.70;19.73;;;;;;;;;;4417167;32;318360;-83
2023/01/25 08:13:27;;;;;;;20.47;14.07;;;;;;;;;;4407455;32;317875;-85
2023/01/25 08:15:54;;;;;;;47.47;30.73;;;;;;;;;;4417229;32;317592;-83
2023/01/25 08:18:21;;;;;;;37.73;23.77;;;;;;;;;;4406314;32;350365;-84
2023/01/25 08:20:48;;;;;;;15.43;12.80;;;;;;;;;;4416641;32;318385;-84
2023/01/25 08:23:16;;;;;;;21.50;13.10;;;;;;;;;;4416754;32;318516;-84
2023/01/25 08:25:43;;;;;;;27.53;17.13;;;;;;;;;;4404219;32;417202;-85
2023/01/25 08:28:10;;;;;;;33.17;21.07;;;;;;;;;;4416654;32;318282;-84
2023/01/25 08:30:36;;;;;;;33.07;20.83;;;;;;;;;;4405517;32;318221;-84
2023/01/25 08:33:03;;;;;;;43.40;32.77;;;;;;;;;;4414933;32;338922;-84
2023/01/25 08:35:30;;;;;;;33.47;24.70;;;;;;;;;;4406601;32;318156;-84
2023/01/25 08:37:57;;;;;;;38.33;24.93;;;;;;;;;;4416762;32;317438;-84
2023/01/25 08:40:25;;;;;;;39.23;22.70;;;;;;;;;;4405342;32;318268;-84
2023/01/25 08:42:52;;;;;;;29.83;21.60;;;;;;;;;;4416723;32;318297;-84
2023/01/25 08:45:18;;;;;;;37.00;22.23;;;;;;;;;;4405114;32;318587;-84
2023/01/25 08:47:45;;;;;;;36.87;25.83;;;;;;;;;;4415629;32;318280;-84
2023/01/25 08:50:12;;;;;;;47.67;33.27;;;;;;;;;;4416538;32;318632;-84
2023/01/25 08:52:39;;;;;;;41.83;27.70;;;;;;;;;;4406541;32;317336;-84
2023/01/25 08:55:06;;;;;;;36.87;27.33;;;;;;;;;;4415062;32;318360;-84
2023/01/25 08:57:34;;;;;;;31.23;21.37;;;;;;;;;;4405769;32;345814;-84
2023/01/25 09:00:01;;;;;;;37.23;22.60;;;;;;;;;;4417375;32;318519;-84
2023/01/25 09:02:28;;;;;;;37.43;22.57;;;;;;;;;;4407789;32;356985;-84
2023/01/25 09:04:55;;;;;;;40.57;23.53;;;;;;;;;;4419588;32;317529;-84
2023/01/25 09:07:21;;;;;;;28.00;19.60;;;;;;;;;;4409662;32;318276;-85
2023/01/25 09:09:48;;;;;;;28.80;19.50;;;;;;;;;;4418021;32;317573;-84
2023/01/25 09:12:15;;;;;;;26.40;18.67;;;;;;;;;;4419138;32;318794;-85
2023/01/25 09:14:43;;;;;;;39.07;26.27;;;;;;;;;;4408923;32;319029;-85
2023/01/25 09:17:10;;;;;;;28.03;17.77;;;;;;;;;;4419513;32;317637;-85
2023/01/25 09:19:37;;;;;;;35.30;25.33;;;;;;;;;;4408606;32;318446;-85
2023/01/25 09:22:03;;;;;;;29.30;20.53;;;;;;;;;;4418766;32;318134;-84
2023/01/25 09:24:30;;;;;;;23.73;18.23;;;;;;;;;;4406952;32;358224;-85
2023/01/25 09:26:57;;;;;;;35.47;26.73;;;;;;;;;;4419353;32;318876;-85
2023/01/25 09:29:24;;;;;;;31.53;22.37;;;;;;;;;;4408915;32;318322;-85
2023/01/25 09:31:52;;;;;;;43.70;28.83;;;;;;;;;;4419223;32;317637;-85
2023/01/25 09:34:21;;;;;;;36.47;24.57;;;;;;;;;;4409065;32;317514;-85
2023/01/25 09:36:47;;;;;;;39.13;26.20;;;;;;;;;;4418177;32;318609;-85
2023/01/25 09:39:14;;;;;;;43.00;27.17;;;;;;;;;;4417357;32;317610;-84
2023/01/25 09:42:03;;;;;;;33.67;21.73;;;;;;;;;;4409280;32;318490;-85
2023/01/25 09:44:45;;;;;;;31.93;21.27;;;;;;;;;;4409053;32;317755;-83
2023/01/25 09:47:20;;;;;;;33.10;23.03;;;;;;;;;;4419243;32;318804;-84
2023/01/25 09:50:02;;;;;;;33.50;24.40;;;;;;;;;;4406349;32;412106;-84
2023/01/25 09:52:49;;;;;;;43.87;29.83;;;;;;;;;;4407506;32;318469;-85
2023/01/25 09:55:21;;;;;;;36.43;25.30;;;;;;;;;;4418239;32;318503;-85
2023/01/25 09:57:52;;;;;;;41.57;26.83;;;;;;;;;;4383536;32;417869;-84
2023/01/25 10:00:23;;;;;;;31.83;21.53;;;;;;;;;;4408050;32;318800;-84
2023/01/25 10:02:57;;;;;;;37.83;27.10;;;;;;;;;;4419252;32;318516;-85
2023/01/25 10:05:28;;;;;;;32.07;23.03;;;;;;;;;;4407749;32;317735;-84
2023/01/25 10:07:58;;;;;;;35.10;25.07;;;;;;;;;;4417568;32;318477;-86
2023/01/25 10:10:32;;;;;;;37.73;23.13;;;;;;;;;;4407558;32;317601;-84
2023/01/25 10:12:59;;;;;;;37.00;25.77;;;;;;;;;;4419153;32;318532;-84
2023/01/25 10:15:31;;;;;;;30.60;23.03;;;;;;;;;;4407682;32;318226;-84
2023/01/25 10:18:05;;;;;;;27.47;20.10;;;;;;;;;;4418084;32;342803;-84
2023/01/25 10:20:40;;;;;;;28.93;20.50;;;;;;;;;;4408619;32;318382;-85
2023/01/25 10:23:26;;;;;;;28.80;19.97;;;;;;;;;;4418616;32;323586;-84
2023/01/25 10:25:58;;;;;;;32.27;19.50;;;;;;;;;;4403609;32;418547;-84
2023/01/25 10:28:36;;;;;;;25.90;18.90;;;;;;;;;;4407774;32;318495;-85
2023/01/25 10:31:06;;;;;;;24.93;19.13;;;;;;;;;;4418546;32;318092;-84
2023/01/25 10:33:39;;;;;;;26.90;20.53;;;;;;;;;;4407968;32;317800;-85
2023/01/25 10:36:07;;;;;;;28.73;20.10;;;;;;;;;;4418394;32;318135;-84
2023/01/25 10:38:41;;;;;;;27.60;19.70;;;;;;;;;;4407325;32;318440;-84
2023/01/25 10:41:10;;;;;;;34.53;19.87;;;;;;;;;;4416813;32;318691;-84
2023/01/25 10:43:38;;;;;;;36.10;22.20;;;;;;;;;;4408610;32;318511;-84
2023/01/25 10:46:19;;;;;;;32.67;21.33;;;;;;;;;;4416854;32;318316;-83
2023/01/25 10:48:47;;;;;;;28.90;21.23;;;;;;;;;;4403200;32;417424;-83
2023/01/25 10:51:29;;;;;;;27.23;19.63;;;;;;;;;;4417695;32;318413;-83
2023/01/25 10:53:59;;;;;;;24.50;16.17;;;;;;;;;;4404884;32;417372;-85
2023/01/25 10:56:27;;;;;;;31.97;20.60;;;;;;;;;;4406886;32;318332;-84
2023/01/25 10:59:07;;;;;;;28.03;20.70;;;;;;;;;;4416880;32;318328;-83
2023/01/25 11:01:36;;;;;;;26.37;19.47;;;;;;;;;;4407394;32;318800;-84
2023/01/25 11:04:23;;;;;;;24.33;17.87;;;;;;;;;;4417902;32;318281;-84
2023/01/25 11:06:51;;;;;;;25.77;17.67;;;;;;;;;;4405008;32;417927;-83
2023/01/25 11:09:36;;;;;;;25.17;19.37;;;;;;;;;;4408218;32;318164;-86
2023/01/25 11:12:07;;;;;;;30.07;20.37;;;;;;;;;;4418286;32;317645;-84
2023/01/25 11:14:37;;;;;;;27.63;21.17;;;;;;;;;;4406499;32;318475;-84
2023/01/25 11:17:06;;;;;;;28.77;20.37;;;;;;;;;;4417212;32;318561;-83
2023/01/25 11:19:36;;;;;;;40.33;23.60;;;;;;;;;;4406443;32;318297;-84
2023/01/25 11:22:05;;;;;;;41.20;28.47;;;;;;;;;;4417150;32;317663;-84
2023/01/25 11:24:33;;;;;;;33.67;23.00;;;;;;;;;;4406516;32;318668;-84
2023/01/25 11:27:13;;;;;;;32.10;20.13;;;;;;;;;;4417149;32;317820;-84
2023/01/25 11:29:40;;;;;;;32.00;21.03;;;;;;;;;;4405750;32;324826;-85
2023/01/25 11:32:19;;;;;;;32.30;22.90;;;;;;;;;;4417047;32;318477;-84
2023/01/25 11:34:50;;;;;;;33.83;22.63;;;;;;;;;;4403892;32;417014;-84
2023/01/25 11:37:42;;;;;;;31.83;22.27;;;;;;;;;;4417925;32;318744;-84
2023/01/25 11:40:20;;;;;;;43.73;29.93;;;;;;;;;;4405041;32;418082;-84
2023/01/25 11:42:59;;;;;;;39.27;26.97;;;;;;;;;;4404070;32;418416;-84
2023/01/25 11:46:02;;;;;;;37.00;26.70;;;;;;;;;;4407485;32;317774;-84
2023/01/25 11:48:48;;;;;;;40.37;25.63;;;;;;;;;;4406055;32;318327;-84
2023/01/25 11:51:23;;;;;;;40.83;25.67;;;;;;;;;;4403226;32;355891;-84
2023/01/25 11:54:03;;;;;;;44.83;29.20;;;;;;;;;;4404511;32;418201;-84
2023/01/25 11:56:42;;;;;;;33.93;23.23;;;;;;;;;;4406548;32;318295;-84
2023/01/25 11:59:30;;;;;;;30.67;23.67;;;;;;;;;;4417106;32;317537;-84
2023/01/25 12:02:13;;;;;;;30.23;22.23;;;;;;;;;;4404066;32;418226;-84
2023/01/25 12:05:25;;;;;;;27.80;21.00;;;;;;;;;;4407238;32;318586;-84
2023/01/25 12:08:07;;;;;;;35.67;20.80;;;;;;;;;;4385261;32;418213;-84
2023/01/25 12:10:43;;;;;;;21.17;16.33;;;;;;;;;;4407233;32;325309;-83
2023/01/25 12:13:19;;;;;;;33.50;20.93;;;;;;;;;;4417340;32;318210;-84
2023/01/25 12:16:00;;;;;;;27.10;17.60;;;;;;;;;;4404613;32;418216;-83
2023/01/25 12:18:41;;;;;;;28.20;19.00;;;;;;;;;;4407469;32;317752;-83
2023/01/25 12:21:19;;;;;;;23.27;16.73;;;;;;;;;;4417316;32;318378;-84
2023/01/25 12:24:02;;;;;;;22.60;15.87;;;;;;;;;;4403194;32;420268;-83
2023/01/25 12:26:34;;;;;;;21.80;15.57;;;;;;;;;;4405533;32;318876;-84
2023/01/25 12:29:08;;;;;;;24.10;17.73;;;;;;;;;;4417223;32;318277;-83
2023/01/25 12:31:42;;;;;;;29.17;18.63;;;;;;;;;;4405335;32;335153;-83
2023/01/25 12:34:14;;;;;;;26.23;18.00;;;;;;;;;;4415777;32;318278;-84
2023/01/25 12:36:44;;;;;;;24.93;18.50;;;;;;;;;;4406850;32;318546;-83
2023/01/25 12:39:16;;;;;;;22.97;16.67;;;;;;;;;;4416771;32;317472;-84
2023/01/25 12:41:49;;;;;;;29.77;15.23;;;;;;;;;;4407272;32;317489;-83
2023/01/25 12:44:21;;;;;;;24.53;13.77;;;;;;;;;;4416028;32;318913;-84
2023/01/25 12:46:55;;;;;;;18.57;12.43;;;;;;;;;;4403190;32;416946;-84
2023/01/25 12:49:28;;;;;;;21.20;14.80;;;;;;;;;;4405749;32;318324;-84
2023/01/25 12:51:55;;;;;;;22.00;13.33;;;;;;;;;;4415446;32;317701;-84
2023/01/25 12:54:30;;;;;;;14.57;12.43;;;;;;;;;;4405823;32;362913;-84
2023/01/25 12:57:10;;;;;;;16.23;11.40;;;;;;;;;;4416040;32;318428;-84
2023/01/25 12:59:46;;;;;;;18.00;12.67;;;;;;;;;;4407232;32;318628;-84
2023/01/25 13:02:41;;;;;;;17.83;10.80;;;;;;;;;;4417278;32;317694;-84
2023/01/25 13:05:21;;;;;;;15.97;11.40;;;;;;;;;;4403290;32;418253;-84
2023/01/25 13:07:54;;;;;;;14.73;11.20;;;;;;;;;;4404369;32;418283;-84
2023/01/25 13:10:26;;;;;;;15.83;9.67;;;;;;;;;;4405910;32;318226;-84
2023/01/25 13:12:54;;;;;;;12.70;10.37;;;;;;;;;;4417365;32;316661;-84
2023/01/25 13:15:41;;;;;;;13.93;9.40;;;;;;;;;;4406900;32;318324;-84
2023/01/25 13:18:37;;;;;;;11.73;9.33;;;;;;;;;;4417297;32;316484;-83
2023/01/25 13:21:07;;;;;;;14.53;10.67;;;;;;;;;;4403044;32;417424;-83
2023/01/25 13:23:36;;;;;;;24.43;11.50;;;;;;;;;;4405756;32;318320;-84
2023/01/25 13:26:39;;;;;;;15.70;11.30;;;;;;;;;;4415827;32;318239;-83
2023/01/25 13:29:51;;;;;;;20.13;13.43;;;;;;;;;;4325873;33;418323;-83
2023/01/25 13:33:06;;;;;;;24.47;12.30;;;;;;;;;;4335573;33;417586;-83
2023/01/25 13:35:48;;;;;;;16.13;11.87;;;;;;;;;;4403085;32;416678;-85
2023/01/25 13:38:36;;;;;;;18.83;12.93;;;;;;;;;;4415948;32;317559;-84
2023/01/25 13:41:11;;;;;;;24.20;14.70;;;;;;;;;;4402993;32;418230;-83
2023/01/25 13:43:40;;;;;;;19.57;14.27;;;;;;;;;;4407132;32;318400;-85
2023/01/25 13:46:11;;;;;;;49.17;32.83;;;;;;;;;;4418962;32;318300;-83
2023/01/25 13:48:52;;;;;;;37.90;24.40;;;;;;;;;;4407636;32;356427;-83
2023/01/25 13:51:20;;;;;;;69.40;41.33;;;;;;;;;;4409652;32;318146;-84
2023/01/25 13:53:56;;;;;;;31.70;18.57;;;;;;;;;;4418125;32;318318;-83
2023/01/25 13:56:29;;;;;;;19.90;14.23;;;;;;;;;;4407778;32;317465;-84
2023/01/25 13:58:57;;;;;;;28.43;19.00;;;;;;;;;;4417925;32;317451;-83
2023/01/25 14:01:25;;;;;;;37.47;26.13;;;;;;;;;;4409142;32;317772;-83
2023/01/25 14:03:55;;;;;;;36.43;24.97;;;;;;;;;;4419163;32;317531;-85
2023/01/25 14:06:26;;;;;;;26.67;16.23;;;;;;;;;;4409311;32;318556;-84
2023/01/25 14:08:55;;;;;;;28.83;19.70;;;;;;;;;;4417770;32;317803;-83
2023/01/25 14:11:23;;;;;;;45.97;25.67;;;;;;;;;;4406644;32;329848;-85
2023/01/25 14:14:03;;;;;;;41.17;25.53;;;;;;;;;;4419111;32;318411;-83
2023/01/25 14:16:31;;;;;;;39.93;24.33;;;;;;;;;;4407746;32;317761;-84
2023/01/25 14:19:22;;;;;;;39.63;24.47;;;;;;;;;;4419202;32;317623;-83
2023/01/25 14:21:48;;;;;;;17.57;13.57;;;;;;;;;;4405834;32;418286;-83
2023/01/25 14:24:17;;;;;;;23.43;16.20;;;;;;;;;;4418921;32;317630;-85
2023/01/25 14:26:46;;;;;;;30.90;16.20;;;;;;;;;;4406025;32;415659;-83
2023/01/25 14:29:19;;;;;;;14.87;10.87;;;;;;;;;;4417218;32;339040;-83